createdAt,value
2023-03-15T00:00:54.697Z,61.43
2023-03-15T00:03:21.729Z,60.84
2023-03-15T00:05:48.879Z,61.03
2023-03-15T00:08:15.583Z,62.42
2023-03-15T00:10:45.639Z,62.70
2023-03-15T00:13:12.567Z,63.08
2023-03-15T00:15:52.224Z,62.76
2023-03-15T00:18:19.225Z,61.15
2023-03-15T00:20:45.970Z,60.88
2023-03-15T00:23:12.689Z,59.61
2023-03-15T00:25:39.414Z,60.33
2023-03-15T00:28:06.205Z,58.90
2023-03-15T00:30:33.040Z,58.64
2023-03-15T00:32:59.710Z,58.76
2023-03-15T00:35:26.366Z,57.58
2023-03-15T00:37:55.991Z,57.89
2023-03-15T00:40:23.458Z,57.81
2023-03-15T00:42:50.361Z,56.86
2023-03-15T00:45:20.024Z,56.70
2023-03-15T00:47:55.610Z,56.86
2023-03-15T00:50:22.642Z,55.92
2023-03-15T00:52:49.302Z,54.90
2023-03-15T00:55:17.192Z,55.93
2023-03-15T00:57:44.545Z,55.51
2023-03-15T01:00:13.336Z,56.13
2023-03-15T01:02:40.356Z,56.30
2023-03-15T01:05:07.679Z,55.87
2023-03-15T01:07:34.386Z,55.48
2023-03-15T01:10:01.776Z,54.91
2023-03-15T01:12:29.166Z,56.49
2023-03-15T01:14:55.836Z,56.26
2023-03-15T01:17:22.487Z,55.70
2023-03-15T01:19:49.381Z,56.36
2023-03-15T01:22:16.027Z,56.72
2023-03-15T01:24:42.676Z,57.48
2023-03-15T01:27:09.318Z,56.57
2023-03-15T01:29:35.961Z,56.96
2023-03-15T01:32:02.578Z,57.82
2023-03-15T01:34:29.363Z,56.43
2023-03-15T01:36:56.033Z,55.75
2023-03-15T01:39:23.808Z,55.31
2023-03-15T01:41:50.452Z,56.32
2023-03-15T01:44:17.946Z,55.67
2023-03-15T01:46:44.739Z,54.91
2023-03-15T01:49:17.640Z,54.55
2023-03-15T01:51:56.592Z,54.24
2023-03-15T01:54:47.597Z,54.53
2023-03-15T01:57:41.936Z,55.40
2023-03-15T02:00:10.443Z,55.45
2023-03-15T02:02:37.164Z,55.53
2023-03-15T02:05:08.135Z,54.81
2023-03-15T02:07:34.841Z,55.14
2023-03-15T02:10:04.455Z,54.71
2023-03-15T02:12:32.332Z,54.86
2023-03-15T02:15:00.244Z,55.41
2023-03-15T02:17:36.521Z,55.62
2023-03-15T02:20:10.576Z,56.67
2023-03-15T02:22:58.010Z,56.89
2023-03-15T02:25:31.577Z,56.26
2023-03-15T02:27:58.219Z,55.92
2023-03-15T02:30:24.866Z,57.52
2023-03-15T02:32:51.552Z,55.24
2023-03-15T02:35:25.562Z,56.53
2023-03-15T02:37:52.214Z,56.06
2023-03-15T02:40:20.619Z,55.53
2023-03-15T02:42:47.268Z,57.15
2023-03-15T02:45:13.902Z,58.09
2023-03-15T02:47:40.608Z,57.61
2023-03-15T02:50:07.419Z,57.81
2023-03-15T02:52:34.069Z,56.73
2023-03-15T02:55:00.729Z,57.55
2023-03-15T02:57:27.641Z,58.14
2023-03-15T02:59:54.280Z,59.18
2023-03-15T03:02:21.136Z,58.07
2023-03-15T03:04:47.931Z,56.95
2023-03-15T03:07:14.595Z,55.47
2023-03-15T03:09:41.228Z,54.78
2023-03-15T03:12:07.888Z,54.88
2023-03-15T03:14:34.616Z,55.19
2023-03-15T03:17:01.371Z,55.18
2023-03-15T03:19:28.031Z,54.01
2023-03-15T03:21:54.716Z,54.66
2023-03-15T03:24:21.382Z,55.14
2023-03-15T03:26:48.072Z,57.24
2023-03-15T03:29:14.867Z,57.23
2023-03-15T03:31:41.503Z,57.39
2023-03-15T03:34:08.139Z,56.59
2023-03-15T03:36:34.907Z,56.58
2023-03-15T03:39:01.537Z,56.04
2023-03-15T03:41:28.213Z,55.56
2023-03-15T03:43:54.919Z,56.38
2023-03-15T03:46:21.648Z,57.19
2023-03-15T03:48:48.297Z,58.03
2023-03-15T03:51:14.919Z,58.15
2023-03-15T03:53:41.539Z,58.28
2023-03-15T03:56:08.498Z,57.88
2023-03-15T03:58:35.175Z,58.18
2023-03-15T04:01:01.884Z,57.22
2023-03-15T04:03:28.548Z,56.46
2023-03-15T04:05:58.645Z,57.27
2023-03-15T04:08:25.729Z,56.74
2023-03-15T04:10:56.348Z,56.96
2023-03-15T04:13:23.270Z,57.67
2023-03-15T04:15:50.068Z,57.16
2023-03-15T04:18:16.917Z,57.83
2023-03-15T04:20:43.598Z,59.29
2023-03-15T04:23:10.213Z,58.93
2023-03-15T04:25:36.858Z,57.09
2023-03-15T04:28:03.475Z,56.55
2023-03-15T04:30:30.123Z,55.18
2023-03-15T04:32:57.082Z,55.13
2023-03-15T04:35:23.743Z,54.91
2023-03-15T04:37:50.406Z,55.26
2023-03-15T04:40:17.088Z,54.15
2023-03-15T04:42:43.738Z,53.78
2023-03-15T04:45:10.667Z,53.80
2023-03-15T04:47:37.290Z,54.15
2023-03-15T04:50:04.041Z,54.21
2023-03-15T04:52:30.907Z,53.77
2023-03-15T04:54:57.597Z,52.42
2023-03-15T04:57:24.223Z,53.42
2023-03-15T04:59:50.889Z,53.55
2023-03-15T05:02:17.614Z,53.01
2023-03-15T05:04:44.313Z,53.78
2023-03-15T05:07:10.967Z,53.34
2023-03-15T05:09:39.632Z,52.83
2023-03-15T05:12:06.929Z,53.13
2023-03-15T05:14:33.580Z,53.42
2023-03-15T05:17:00.220Z,54.12
2023-03-15T05:19:26.873Z,54.47
2023-03-15T05:21:53.579Z,54.91
2023-03-15T05:24:20.996Z,55.51
2023-03-15T05:26:47.648Z,55.04
2023-03-15T05:29:14.305Z,55.08
2023-03-15T05:31:41.078Z,55.87
2023-03-15T05:34:07.935Z,56.00
2023-03-15T05:36:34.607Z,56.22
2023-03-15T05:39:01.234Z,55.57
2023-03-15T05:41:27.900Z,55.18
2023-03-15T05:43:54.543Z,55.72
2023-03-15T05:46:21.189Z,54.91
2023-03-15T05:48:47.850Z,55.46
2023-03-15T05:51:15.023Z,55.31
2023-03-15T05:53:41.680Z,55.17
2023-03-15T05:56:08.498Z,55.12
2023-03-15T05:58:35.141Z,56.07
2023-03-15T06:01:02.631Z,56.51
2023-03-15T06:03:29.563Z,55.89
2023-03-15T06:05:56.376Z,55.18
2023-03-15T06:08:23.049Z,54.56
2023-03-15T06:10:49.689Z,54.09
2023-03-15T06:13:18.224Z,53.96
2023-03-15T06:15:46.788Z,54.63
2023-03-15T06:18:13.607Z,54.54
2023-03-15T06:20:40.763Z,55.15
2023-03-15T06:23:07.436Z,54.98
2023-03-15T06:25:34.093Z,55.53
2023-03-15T06:28:00.723Z,55.35
2023-03-15T06:30:27.450Z,56.40
2023-03-15T06:32:54.908Z,55.40
2023-03-15T06:35:21.643Z,55.25
2023-03-15T06:37:48.353Z,54.40
2023-03-15T06:40:15.370Z,54.81
2023-03-15T06:42:41.993Z,54.67
2023-03-15T06:45:09.295Z,55.17
2023-03-15T06:47:35.962Z,54.94
2023-03-15T06:50:02.665Z,54.71
2023-03-15T06:52:29.325Z,54.53
2023-03-15T06:54:56.001Z,54.83
2023-03-15T06:57:22.691Z,55.54
2023-03-15T06:59:49.357Z,55.61
2023-03-15T07:02:17.698Z,56.02
2023-03-15T07:04:44.600Z,55.55
2023-03-15T07:07:11.926Z,55.08
2023-03-15T07:09:38.828Z,55.91
2023-03-15T07:12:05.779Z,55.89
2023-03-15T07:14:35.382Z,55.54
2023-03-15T07:17:03.467Z,55.20
2023-03-15T07:19:32.605Z,55.11
2023-03-15T07:21:59.368Z,54.95
2023-03-15T07:24:26.330Z,55.51
2023-03-15T07:26:55.901Z,54.36
2023-03-15T07:29:23.618Z,53.01
2023-03-15T07:31:53.172Z,52.49
2023-03-15T07:34:20.747Z,52.00
2023-03-15T07:36:47.397Z,52.49
2023-03-15T07:39:14.017Z,53.75
2023-03-15T07:41:40.663Z,55.25
2023-03-15T07:44:07.311Z,57.00
2023-03-15T07:46:33.980Z,58.96
2023-03-15T07:49:00.676Z,58.56
2023-03-15T07:51:27.364Z,58.65
2023-03-15T07:53:54.005Z,59.68
2023-03-15T07:56:20.690Z,59.30
2023-03-15T07:58:47.334Z,57.13
2023-03-15T08:01:13.979Z,56.63
2023-03-15T08:03:40.830Z,57.82
2023-03-15T08:06:07.747Z,54.15
2023-03-15T08:08:34.416Z,53.79
2023-03-15T08:11:01.091Z,53.97
2023-03-15T08:13:27.788Z,54.36
2023-03-15T08:15:55.806Z,54.43
2023-03-15T08:18:23.398Z,54.71
2023-03-15T08:20:50.086Z,55.35
2023-03-15T08:23:17.576Z,53.86
2023-03-15T08:25:46.673Z,51.78
2023-03-15T08:28:13.755Z,52.03
2023-03-15T08:30:40.506Z,53.08
2023-03-15T08:33:07.862Z,53.58
2023-03-15T08:35:34.704Z,52.50
2023-03-15T08:38:01.907Z,51.46
2023-03-15T08:40:28.764Z,48.54
2023-03-15T08:42:55.592Z,48.15
2023-03-15T08:45:23.978Z,48.02
2023-03-15T08:47:58.554Z,46.17
2023-03-15T08:50:26.201Z,45.92
2023-03-15T08:52:53.774Z,44.53
2023-03-15T08:55:21.345Z,42.72
2023-03-15T08:57:48.940Z,43.12
2023-03-15T09:00:16.544Z,43.04
2023-03-15T09:02:45.208Z,40.84
2023-03-15T09:05:12.747Z,37.96
2023-03-15T09:07:40.342Z,34.48
2023-03-15T09:10:07.930Z,32.33
2023-03-15T09:12:37.222Z,31.33
2023-03-15T09:15:06.960Z,30.19
2023-03-15T09:17:44.055Z,29.92
2023-03-15T09:20:13.379Z,31.10
2023-03-15T09:22:42.069Z,31.60
2023-03-15T09:25:12.413Z,32.43
2023-03-15T09:27:41.321Z,34.16
2023-03-15T09:30:09.759Z,36.78
2023-03-15T09:32:37.365Z,35.64
2023-03-15T09:35:04.955Z,37.86
2023-03-15T09:37:32.595Z,39.09
2023-03-15T09:40:00.149Z,38.95
2023-03-15T09:42:38.945Z,39.46
2023-03-15T09:45:40.517Z,40.58
2023-03-15T09:48:31.240Z,42.47
2023-03-15T09:51:08.138Z,42.63
2023-03-15T09:53:40.466Z,44.44
2023-03-15T09:56:28.130Z,42.83
2023-03-15T09:58:59.732Z,43.69
2023-03-15T10:01:31.434Z,42.27
2023-03-15T10:03:59.039Z,39.38
2023-03-15T10:06:41.143Z,42.06
2023-03-15T10:09:15.220Z,43.82
2023-03-15T10:12:01.179Z,43.34
2023-03-15T10:14:53.652Z,42.25
2023-03-15T10:17:32.285Z,42.09
2023-03-15T10:20:00.866Z,42.67
2023-03-15T10:22:37.480Z,41.18
2023-03-15T10:25:05.115Z,45.14
2023-03-15T10:27:50.748Z,44.69
2023-03-15T10:30:21.361Z,42.19
2023-03-15T10:32:54.988Z,43.95
2023-03-15T10:35:22.557Z,44.59
2023-03-15T10:37:50.135Z,42.07
2023-03-15T10:40:17.184Z,41.70
2023-03-15T10:42:45.331Z,42.90
2023-03-15T10:45:32.053Z,43.50
2023-03-15T10:48:00.979Z,42.73
2023-03-15T10:50:32.397Z,42.94
2023-03-15T10:53:00.780Z,41.79
2023-03-15T10:55:38.410Z,42.42
2023-03-15T10:58:18.133Z,43.74
2023-03-15T11:00:52.680Z,43.59
2023-03-15T11:03:25.323Z,43.68
2023-03-15T11:05:59.899Z,43.10
2023-03-15T11:08:45.615Z,43.01
2023-03-15T11:11:15.213Z,43.97
2023-03-15T11:13:47.859Z,42.32
2023-03-15T11:16:15.478Z,42.01
2023-03-15T11:18:53.050Z,44.01
2023-03-15T11:21:22.797Z,41.31
2023-03-15T11:23:55.462Z,43.84
2023-03-15T11:26:33.506Z,41.88
2023-03-15T11:29:15.550Z,41.08
2023-03-15T11:31:43.176Z,41.89
2023-03-15T11:34:14.767Z,43.14
2023-03-15T11:36:46.301Z,44.33
2023-03-15T11:39:15.978Z,41.02
2023-03-15T11:41:54.592Z,40.14
2023-03-15T11:44:29.210Z,41.02
2023-03-15T11:47:08.849Z,39.96
2023-03-15T11:49:38.451Z,39.25
2023-03-15T11:52:06.119Z,37.76
2023-03-15T11:54:32.847Z,37.12
2023-03-15T11:57:03.942Z,37.83
2023-03-15T11:59:40.040Z,39.10
2023-03-15T12:02:10.597Z,39.08
2023-03-15T12:04:41.081Z,40.14
2023-03-15T12:07:17.731Z,39.11
2023-03-15T12:09:53.510Z,39.65
2023-03-15T12:12:26.967Z,39.43
2023-03-15T12:15:35.758Z,38.74
2023-03-15T12:18:05.218Z,39.18
2023-03-15T12:20:46.275Z,38.79
2023-03-15T12:23:18.996Z,38.26
2023-03-15T12:26:04.272Z,38.27
2023-03-15T12:28:41.857Z,37.16
2023-03-15T12:31:10.564Z,38.27
2023-03-15T12:33:57.153Z,36.62
2023-03-15T12:36:40.809Z,37.60
2023-03-15T12:39:18.933Z,38.38
2023-03-15T12:41:48.019Z,37.44
2023-03-15T12:44:40.722Z,37.57
2023-03-15T12:47:14.354Z,39.29
2023-03-15T12:49:47.356Z,39.62
2023-03-15T12:52:17.581Z,38.98
2023-03-15T12:54:47.195Z,39.36
2023-03-15T12:57:15.783Z,39.10
2023-03-15T12:59:53.424Z,39.36
2023-03-15T13:02:35.678Z,40.78
2023-03-15T13:05:17.716Z,40.34
2023-03-15T13:08:07.411Z,40.04
2023-03-15T13:10:40.350Z,39.75
2023-03-15T13:13:24.245Z,39.09
2023-03-15T13:15:55.333Z,39.17
2023-03-15T13:18:23.899Z,39.60
2023-03-15T13:20:57.536Z,39.13
2023-03-15T13:23:30.198Z,38.70
2023-03-15T13:26:20.829Z,35.92
2023-03-15T13:28:56.740Z,36.32
2023-03-15T13:31:25.105Z,33.51
2023-03-15T13:33:53.654Z,33.72
2023-03-15T13:36:21.231Z,34.37
2023-03-15T13:38:52.184Z,35.31
2023-03-15T13:41:20.964Z,37.64
2023-03-15T13:43:48.656Z,35.50
2023-03-15T13:46:15.509Z,36.88
2023-03-15T13:48:44.225Z,36.86
2023-03-15T13:51:22.881Z,37.71
2023-03-15T13:53:55.536Z,38.70
2023-03-15T13:56:32.696Z,37.37
2023-03-15T13:59:04.735Z,35.66
2023-03-15T14:01:32.338Z,36.63
2023-03-15T14:04:09.156Z,34.03
2023-03-15T14:06:36.582Z,34.14
2023-03-15T14:09:09.962Z,34.56
2023-03-15T14:11:38.773Z,34.48
2023-03-15T14:14:24.450Z,35.62
2023-03-15T14:17:04.273Z,31.24
2023-03-15T14:19:36.293Z,33.13
2023-03-15T14:22:25.950Z,32.04
2023-03-15T14:24:54.758Z,33.00
2023-03-15T14:27:23.336Z,30.54
2023-03-15T14:29:52.225Z,32.22
2023-03-15T14:32:33.054Z,30.92
2023-03-15T14:35:07.994Z,32.24
2023-03-15T14:37:42.094Z,29.33
2023-03-15T14:40:24.718Z,30.84
2023-03-15T14:42:52.597Z,31.09
2023-03-15T14:45:20.951Z,28.54
2023-03-15T14:47:58.393Z,29.09
2023-03-15T14:50:28.240Z,28.03
2023-03-15T14:52:56.815Z,27.22
2023-03-15T14:55:25.370Z,28.54
2023-03-15T14:57:53.951Z,23.36
2023-03-15T15:00:22.550Z,25.27
2023-03-15T15:02:52.156Z,24.09
2023-03-15T15:05:27.803Z,27.13
2023-03-15T15:08:12.507Z,22.75
2023-03-15T15:10:40.019Z,24.34
2023-03-15T15:13:07.686Z,24.66
2023-03-15T15:15:43.899Z,23.97
2023-03-15T15:18:14.964Z,22.46
2023-03-15T15:20:43.451Z,22.66
2023-03-15T15:23:14.051Z,21.81
2023-03-15T15:25:41.716Z,23.48
2023-03-15T15:28:13.869Z,20.46
2023-03-15T15:30:42.840Z,19.90
2023-03-15T15:33:10.577Z,22.82
2023-03-15T15:35:38.038Z,24.54
2023-03-15T15:38:09.618Z,24.90
2023-03-15T15:40:37.238Z,24.53
2023-03-15T15:43:04.800Z,23.67
2023-03-15T15:45:32.414Z,21.28
2023-03-15T15:48:00.995Z,18.92
2023-03-15T15:50:27.645Z,23.19
2023-03-15T15:52:55.194Z,19.51
2023-03-15T15:55:24.769Z,21.03
2023-03-15T15:57:52.355Z,18.76
2023-03-15T16:00:21.964Z,17.98
2023-03-15T16:02:48.821Z,18.28
2023-03-15T16:05:15.561Z,18.61
2023-03-15T16:07:42.228Z,18.13
2023-03-15T16:10:12.512Z,21.11
2023-03-15T16:12:44.954Z,17.64
2023-03-15T16:15:13.537Z,18.25
2023-03-15T16:17:41.219Z,21.32
2023-03-15T16:20:09.763Z,21.27
2023-03-15T16:22:41.369Z,23.35
2023-03-15T16:25:23.010Z,19.46
2023-03-15T16:27:51.603Z,21.53
2023-03-15T16:30:26.132Z,21.37
2023-03-15T16:32:53.860Z,22.39
2023-03-15T16:35:21.408Z,22.51
2023-03-15T16:37:48.127Z,23.10
2023-03-15T16:40:23.613Z,22.55
2023-03-15T16:42:51.218Z,22.69
2023-03-15T16:45:18.808Z,21.70
2023-03-15T16:47:45.464Z,22.64
2023-03-15T16:50:12.304Z,22.92
2023-03-15T16:52:39.361Z,25.46
2023-03-15T16:55:06.297Z,26.17
2023-03-15T16:57:32.957Z,27.27
2023-03-15T17:00:00.945Z,25.46
2023-03-15T17:02:28.415Z,26.86
2023-03-15T17:04:55.539Z,27.65
2023-03-15T17:07:26.169Z,27.42
2023-03-15T17:09:53.771Z,27.01
2023-03-15T17:12:27.123Z,27.07
2023-03-15T17:14:54.973Z,27.63
2023-03-15T17:17:21.811Z,27.68
2023-03-15T17:19:48.525Z,26.55
2023-03-15T17:22:18.805Z,26.90
2023-03-15T17:24:46.649Z,27.68
2023-03-15T17:28:12.581Z,28.00
2023-03-15T17:30:39.332Z,26.08
2023-03-15T17:33:06.592Z,25.00
2023-03-15T17:35:39.074Z,25.90
2023-03-15T17:38:07.585Z,26.44
2023-03-15T17:40:36.258Z,27.30
2023-03-15T17:43:04.861Z,28.83
2023-03-15T17:45:34.452Z,33.19
2023-03-15T17:48:02.010Z,35.84
2023-03-15T17:50:30.314Z,33.15
2023-03-15T17:53:02.199Z,31.72
2023-03-15T17:55:29.800Z,35.84
2023-03-15T17:57:57.424Z,34.67
2023-03-15T18:00:24.227Z,34.31
2023-03-15T18:02:55.509Z,36.76
2023-03-15T18:05:25.227Z,34.88
2023-03-15T18:07:58.912Z,31.36
2023-03-15T18:10:27.416Z,30.77
2023-03-15T18:12:54.086Z,33.26
2023-03-15T18:15:21.830Z,31.79
2023-03-15T18:17:48.481Z,33.68
2023-03-15T18:20:15.398Z,36.11
2023-03-15T18:22:42.038Z,36.32
2023-03-15T18:25:25.231Z,38.03
2023-03-15T18:27:52.003Z,36.93
2023-03-15T18:30:22.680Z,36.59
2023-03-15T18:32:49.804Z,37.04
2023-03-15T18:35:18.430Z,37.25
2023-03-15T18:37:45.247Z,39.45
2023-03-15T18:40:13.081Z,37.54
2023-03-15T18:42:40.599Z,39.03
2023-03-15T18:45:08.105Z,37.92
2023-03-15T18:47:37.738Z,38.46
2023-03-15T18:50:10.352Z,37.67
2023-03-15T18:52:37.401Z,37.13
2023-03-15T18:55:04.418Z,37.84
2023-03-15T18:57:31.130Z,37.25
2023-03-15T18:59:57.799Z,39.69
2023-03-15T19:02:24.505Z,37.57
2023-03-15T19:04:51.220Z,38.59
2023-03-15T19:07:17.871Z,39.92
2023-03-15T19:09:44.523Z,38.89
2023-03-15T19:12:11.227Z,39.18
2023-03-15T19:14:37.921Z,38.51
2023-03-15T19:17:04.836Z,39.44
2023-03-15T19:19:31.600Z,40.54
2023-03-15T19:21:58.306Z,40.94
2023-03-15T19:24:24.990Z,41.36
2023-03-15T19:26:51.626Z,41.41
2023-03-15T19:29:18.333Z,42.60
2023-03-15T19:31:44.993Z,42.03
2023-03-15T19:34:11.662Z,42.16
2023-03-15T19:36:38.447Z,44.02
2023-03-15T19:39:05.131Z,42.42
2023-03-15T19:41:31.821Z,42.04
2023-03-15T19:43:58.447Z,42.24
2023-03-15T19:46:25.274Z,41.82
2023-03-15T19:48:52.056Z,42.28
2023-03-15T19:51:19.336Z,42.64
2023-03-15T19:53:46.037Z,42.63
2023-03-15T19:56:12.759Z,43.81
2023-03-15T19:58:39.419Z,42.80
2023-03-15T20:01:06.286Z,42.99
2023-03-15T20:03:33.048Z,42.30
2023-03-15T20:06:12.966Z,42.00
2023-03-15T20:08:40.370Z,41.91
2023-03-15T20:11:07.063Z,42.63
2023-03-15T20:13:36.977Z,43.07
2023-03-15T20:16:04.477Z,43.50
2023-03-15T20:18:31.170Z,43.65
2023-03-15T20:20:58.852Z,43.41
2023-03-15T20:23:26.465Z,43.56
2023-03-15T20:25:53.145Z,43.55
2023-03-15T20:28:19.797Z,43.67
2023-03-15T20:30:46.485Z,44.13
2023-03-15T20:33:13.183Z,44.81
2023-03-15T20:35:39.987Z,45.01
2023-03-15T20:38:06.702Z,44.52
2023-03-15T20:40:34.531Z,46.09
2023-03-15T20:43:01.258Z,45.92
2023-03-15T20:45:27.956Z,45.22
2023-03-15T20:47:54.726Z,45.12
2023-03-15T20:50:21.627Z,44.01
2023-03-15T20:52:48.425Z,44.79
2023-03-15T20:55:15.057Z,45.46
2023-03-15T20:57:41.985Z,44.74
2023-03-15T21:00:12.790Z,44.27
2023-03-15T21:02:39.804Z,44.59
2023-03-15T21:05:08.045Z,44.96
2023-03-15T21:07:34.791Z,44.27
2023-03-15T21:10:01.481Z,44.34
2023-03-15T21:12:28.138Z,45.27
2023-03-15T21:14:54.814Z,45.45
2023-03-15T21:17:21.470Z,46.25
2023-03-15T21:19:48.305Z,46.12
2023-03-15T21:22:14.936Z,45.88
2023-03-15T21:24:54.810Z,45.78
2023-03-15T21:27:22.415Z,46.32
2023-03-15T21:29:49.049Z,46.35
2023-03-15T21:32:15.682Z,46.53
2023-03-15T21:34:42.331Z,46.59
2023-03-15T21:37:08.962Z,46.33
2023-03-15T21:39:35.618Z,46.76
2023-03-15T21:42:02.255Z,46.65
2023-03-15T21:44:28.910Z,46.67
2023-03-15T21:46:55.572Z,46.08
2023-03-15T21:49:22.236Z,46.34
2023-03-15T21:51:48.889Z,45.80
2023-03-15T21:54:15.558Z,45.13
2023-03-15T21:56:42.197Z,44.45
2023-03-15T21:59:08.881Z,43.92
2023-03-15T22:01:35.926Z,44.17
2023-03-15T22:04:02.591Z,43.85
2023-03-15T22:06:29.234Z,44.13
2023-03-15T22:08:55.874Z,43.60
2023-03-15T22:11:22.542Z,43.82
2023-03-15T22:13:49.180Z,43.38
2023-03-15T22:16:15.916Z,43.30
2023-03-15T22:18:42.666Z,43.77
2023-03-15T22:21:09.368Z,44.35
2023-03-15T22:23:36.037Z,43.86
2023-03-15T22:26:02.738Z,44.05
2023-03-15T22:28:29.400Z,43.86
2023-03-15T22:30:56.100Z,44.68
2023-03-15T22:33:22.819Z,45.12
2023-03-15T22:35:56.843Z,45.48
2023-03-15T22:38:23.938Z,46.25
2023-03-15T22:40:50.600Z,46.80
2023-03-15T22:43:17.270Z,47.59
2023-03-15T22:45:43.909Z,47.85
2023-03-15T22:48:10.584Z,47.84
2023-03-15T22:50:37.222Z,47.73
2023-03-15T22:53:03.860Z,47.10
2023-03-15T22:55:30.571Z,47.62
2023-03-15T22:57:57.257Z,47.34
2023-03-15T23:00:24.235Z,47.38
2023-03-15T23:02:51.045Z,46.92
2023-03-15T23:05:17.728Z,47.20
2023-03-15T23:07:44.375Z,47.61
2023-03-15T23:10:11.249Z,47.63
2023-03-15T23:12:37.985Z,47.15
2023-03-15T23:15:05.209Z,46.76
2023-03-15T23:17:31.926Z,47.01
2023-03-15T23:19:58.581Z,47.22
2023-03-15T23:22:25.390Z,47.41
2023-03-15T23:24:52.069Z,49.34
2023-03-15T23:27:18.745Z,49.69
2023-03-15T23:29:54.058Z,48.80
2023-03-15T23:32:21.831Z,48.71
2023-03-15T23:34:48.517Z,48.63
2023-03-15T23:37:15.277Z,47.49
2023-03-15T23:39:42.147Z,47.77
2023-03-15T23:42:08.932Z,47.72
2023-03-15T23:44:35.615Z,47.46
2023-03-15T23:47:02.253Z,47.77
2023-03-15T23:49:29.283Z,47.98
2023-03-15T23:51:55.916Z,47.97
2023-03-15T23:54:22.634Z,49.26
2023-03-15T23:56:49.361Z,49.14
2023-03-15T23:59:16.075Z,49.04
